createdAt,value
2019-01-06T00:00:16.086Z,7.80
2019-01-06T00:03:20.645Z,7.80
2019-01-06T00:06:13.645Z,7.90
2019-01-06T00:09:07.498Z,7.90
2019-01-06T00:12:00.681Z,7.90
2019-01-06T00:14:44.571Z,7.90
2019-01-06T00:17:36.571Z,7.90
2019-01-06T00:20:23.995Z,7.90
2019-01-06T00:23:19.242Z,7.90
2019-01-06T00:26:09.839Z,7.90
2019-01-06T00:28:59.590Z,7.80
2019-01-06T00:31:54.464Z,7.80
2019-01-06T00:34:47.186Z,7.80
2019-01-06T00:37:45.592Z,7.90
2019-01-06T00:40:34.554Z,7.90
2019-01-06T00:43:18.697Z,7.90
2019-01-06T00:46:11.181Z,7.90
2019-01-06T00:49:13.380Z,7.90
2019-01-06T00:52:10.967Z,8.00
2019-01-06T00:55:10.759Z,8.00
2019-01-06T00:57:57.608Z,7.90
2019-01-06T01:00:48.726Z,7.90
2019-01-06T01:03:35.800Z,8.00
2019-01-06T01:06:23.463Z,7.90
2019-01-06T01:09:07.113Z,7.80
2019-01-06T01:11:53.943Z,7.80
2019-01-06T01:14:50.721Z,7.90
2019-01-06T01:17:38.708Z,7.90
2019-01-06T01:20:30.422Z,7.80
2019-01-06T01:23:34.350Z,7.80
2019-01-06T01:26:27.253Z,7.80
2019-01-06T01:29:13.930Z,7.80
2019-01-06T01:31:59.539Z,7.90
2019-01-06T01:34:56.082Z,7.90
2019-01-06T01:37:59.517Z,7.90
2019-01-06T01:40:49.710Z,7.90
2019-01-06T01:43:32.493Z,7.90
2019-01-06T01:46:21.898Z,7.90
2019-01-06T01:49:08.946Z,7.90
2019-01-06T01:51:55.893Z,7.90
2019-01-06T01:54:36.845Z,7.90
2019-01-06T01:57:19.621Z,7.90
2019-01-06T02:00:26.051Z,7.90
2019-01-06T02:03:29.054Z,7.90
2019-01-06T02:06:11.419Z,7.90
2019-01-06T02:08:58.299Z,8.00
2019-01-06T02:11:52.497Z,8.00
2019-01-06T02:14:35.835Z,7.90
2019-01-06T02:17:33.245Z,7.90
2019-01-06T02:20:25.150Z,7.90
2019-01-06T02:23:12.205Z,7.90
2019-01-06T02:25:59.510Z,7.90
2019-01-06T02:29:02.713Z,7.90
2019-01-06T02:31:54.759Z,7.90
2019-01-06T02:34:41.646Z,7.90
2019-01-06T02:37:23.018Z,7.90
2019-01-06T02:40:16.723Z,7.90
2019-01-06T02:43:10.864Z,7.90
2019-01-06T02:45:59.002Z,7.90
2019-01-06T02:48:56.133Z,7.80
2019-01-06T02:51:50.034Z,7.90
2019-01-06T02:54:37.018Z,7.90
2019-01-06T02:57:28.141Z,7.90
2019-01-06T03:00:13.383Z,7.90
2019-01-06T03:03:13.923Z,7.90
2019-01-06T03:06:09.064Z,7.90
2019-01-06T03:09:00.422Z,7.90
2019-01-06T03:11:46.915Z,7.90
2019-01-06T03:14:38.000Z,7.90
2019-01-06T03:17:21.690Z,7.90
2019-01-06T03:20:08.441Z,7.90
2019-01-06T03:23:02.435Z,7.90
2019-01-06T03:25:54.415Z,7.90
2019-01-06T03:28:42.442Z,7.90
2019-01-06T03:31:49.422Z,7.90
2019-01-06T03:34:36.227Z,7.90
2019-01-06T03:37:23.296Z,7.90
2019-01-06T03:40:29.912Z,7.80
2019-01-06T03:43:11.909Z,7.70
2019-01-06T03:46:18.483Z,7.70
2019-01-06T03:49:05.134Z,7.70
2019-01-06T03:51:51.273Z,7.70
2019-01-06T03:54:54.264Z,7.70
2019-01-06T03:57:40.885Z,7.70
2019-01-06T04:00:27.895Z,7.60
2019-01-06T04:03:19.026Z,7.60
2019-01-06T04:06:02.395Z,7.60
2019-01-06T04:08:49.354Z,7.60
2019-01-06T04:11:37.281Z,7.60
2019-01-06T04:14:24.340Z,7.60
2019-01-06T04:17:06.414Z,7.60
2019-01-06T04:19:53.341Z,7.60
2019-01-06T04:22:59.759Z,7.60
2019-01-06T04:25:47.725Z,7.60
2019-01-06T04:28:34.590Z,7.70
2019-01-06T04:31:21.290Z,7.70
2019-01-06T04:34:12.318Z,7.70
2019-01-06T04:37:09.742Z,7.70
2019-01-06T04:39:56.755Z,7.70
2019-01-06T04:42:40.698Z,7.70
2019-01-06T04:45:28.639Z,7.70
2019-01-06T04:48:07.433Z,7.70
2019-01-06T04:50:46.337Z,7.70
2019-01-06T04:53:35.739Z,7.70
2019-01-06T04:56:23.751Z,7.70
2019-01-06T04:59:10.696Z,7.70
2019-01-06T05:01:57.657Z,7.70
2019-01-06T05:04:44.490Z,7.70
2019-01-06T05:07:36.078Z,7.70
2019-01-06T05:10:27.524Z,7.70
2019-01-06T05:13:15.522Z,7.70
2019-01-06T05:16:03.558Z,7.60
2019-01-06T05:18:50.213Z,7.60
2019-01-06T05:21:37.211Z,7.70
2019-01-06T05:24:31.454Z,7.60
2019-01-06T05:27:22.346Z,7.60
2019-01-06T05:30:13.441Z,7.60
2019-01-06T05:33:00.121Z,7.50
2019-01-06T05:35:46.807Z,7.50
2019-01-06T05:38:50.119Z,7.50
2019-01-06T05:41:36.803Z,7.50
2019-01-06T05:44:18.387Z,7.60
2019-01-06T05:47:13.534Z,7.60
2019-01-06T05:50:00.502Z,7.60
2019-01-06T05:52:41.166Z,7.70
2019-01-06T05:55:33.734Z,7.70
2019-01-06T05:58:30.594Z,7.60
2019-01-06T06:01:17.569Z,7.60
2019-01-06T06:04:11.772Z,7.70
2019-01-06T06:07:11.254Z,7.70
2019-01-06T06:10:04.467Z,7.70
2019-01-06T06:12:55.307Z,7.70
2019-01-06T06:15:46.106Z,7.70
2019-01-06T06:18:32.641Z,7.70
2019-01-06T06:21:29.699Z,7.60
2019-01-06T06:24:13.646Z,7.60
2019-01-06T06:27:04.477Z,7.60
2019-01-06T06:29:57.847Z,7.60
2019-01-06T06:32:45.183Z,7.60
2019-01-06T06:35:39.524Z,7.60
2019-01-06T06:38:27.470Z,7.60
2019-01-06T06:41:14.231Z,7.50
2019-01-06T06:44:17.803Z,7.50
2019-01-06T06:47:14.422Z,7.50
2019-01-06T06:50:05.405Z,7.40
2019-01-06T06:52:51.357Z,7.40
2019-01-06T06:55:42.782Z,7.30
2019-01-06T06:58:39.683Z,7.30
2019-01-06T07:01:38.017Z,7.30
2019-01-06T07:04:25.173Z,7.40
2019-01-06T07:07:20.038Z,7.40
2019-01-06T07:10:11.178Z,7.40
2019-01-06T07:12:58.201Z,7.40
2019-01-06T07:15:58.939Z,7.50
2019-01-06T07:18:50.227Z,7.50
2019-01-06T07:21:47.817Z,7.50
2019-01-06T07:24:34.746Z,7.40
2019-01-06T07:27:32.066Z,7.40
2019-01-06T07:30:28.749Z,7.50
2019-01-06T07:33:18.254Z,7.50
2019-01-06T07:36:05.105Z,7.50
2019-01-06T07:38:52.009Z,7.50
2019-01-06T07:41:39.943Z,7.50
2019-01-06T07:44:32.392Z,7.50
2019-01-06T07:47:25.554Z,7.50
2019-01-06T07:50:22.590Z,7.50
2019-01-06T07:53:20.747Z,7.50
2019-01-06T07:56:20.834Z,7.50
2019-01-06T07:59:11.627Z,7.60
2019-01-06T08:02:06.061Z,7.60
2019-01-06T08:04:55.900Z,7.60
2019-01-06T08:07:58.308Z,7.60
2019-01-06T08:10:55.339Z,7.60
2019-01-06T08:13:48.485Z,7.70
2019-01-06T08:16:40.742Z,7.70
2019-01-06T08:19:23.884Z,7.70
2019-01-06T08:22:05.718Z,7.70
2019-01-06T08:24:53.722Z,7.70
2019-01-06T08:27:48.669Z,7.60
2019-01-06T08:30:39.625Z,7.60
2019-01-06T08:33:20.333Z,7.60
2019-01-06T08:36:07.574Z,7.70
2019-01-06T08:39:08.556Z,7.70
2019-01-06T08:41:56.475Z,7.70
2019-01-06T08:44:43.466Z,7.80
2019-01-06T08:47:30.599Z,7.80
2019-01-06T08:50:12.934Z,7.70
2019-01-06T08:53:00.875Z,7.70
2019-01-06T08:55:55.978Z,7.70
2019-01-06T08:58:58.763Z,7.70
2019-01-06T09:02:00.762Z,7.70
2019-01-06T09:04:52.720Z,7.70
2019-01-06T09:07:52.796Z,7.80
2019-01-06T09:10:40.834Z,7.80
2019-01-06T09:13:20.896Z,7.80
2019-01-06T09:16:07.574Z,7.80
2019-01-06T09:19:04.721Z,7.90
2019-01-06T09:21:46.722Z,7.90
2019-01-06T09:24:33.890Z,7.90
2019-01-06T09:27:13.438Z,7.90
2019-01-06T09:30:05.008Z,7.90
2019-01-06T09:32:56.295Z,7.90
2019-01-06T09:35:43.191Z,7.90
2019-01-06T09:38:30.086Z,7.90
2019-01-06T09:41:27.242Z,7.90
2019-01-06T09:44:13.954Z,7.90
2019-01-06T09:47:02.051Z,7.90
2019-01-06T09:49:52.798Z,7.90
2019-01-06T09:52:53.058Z,7.90
2019-01-06T09:55:39.683Z,8.00
2019-01-06T09:58:43.013Z,8.00
2019-01-06T10:01:29.649Z,8.00
2019-01-06T10:04:35.828Z,8.10
2019-01-06T10:07:39.620Z,8.10
2019-01-06T10:10:22.023Z,8.10
2019-01-06T10:13:08.910Z,8.10
2019-01-06T10:15:59.938Z,8.10
2019-01-06T10:18:46.789Z,8.10
2019-01-06T10:21:25.746Z,8.10
2019-01-06T10:24:12.824Z,8.20
2019-01-06T10:27:00.864Z,8.10
2019-01-06T10:30:06.879Z,8.10
2019-01-06T10:32:53.479Z,8.10
2019-01-06T10:35:53.659Z,8.10
2019-01-06T10:38:47.623Z,8.10
2019-01-06T10:41:35.214Z,8.10
2019-01-06T10:44:21.938Z,8.10
2019-01-06T10:47:28.484Z,8.10
2019-01-06T10:50:28.362Z,8.10
2019-01-06T10:53:19.105Z,8.10
2019-01-06T10:56:19.209Z,8.10
2019-01-06T10:59:10.390Z,8.10
2019-01-06T11:02:13.589Z,8.10
2019-01-06T11:04:58.683Z,8.20
2019-01-06T11:07:54.132Z,8.20
2019-01-06T11:10:35.587Z,8.20
2019-01-06T11:13:22.792Z,8.20
2019-01-06T11:16:16.936Z,8.20
2019-01-06T11:19:19.326Z,8.20
2019-01-06T11:22:16.501Z,8.10
2019-01-06T11:25:16.909Z,8.10
2019-01-06T11:28:03.794Z,8.10
2019-01-06T11:30:48.965Z,8.10
2019-01-06T11:33:35.610Z,8.10
2019-01-06T11:36:19.182Z,8.10
2019-01-06T11:39:19.025Z,8.10
2019-01-06T11:42:15.959Z,8.10
2019-01-06T11:47:32.123Z,8.10
2019-01-06T11:50:10.422Z,8.10
2019-01-06T11:53:10.813Z,8.10
2019-01-06T11:56:16.992Z,8.10
2019-01-06T11:59:03.663Z,8.10
2019-01-06T12:01:51.686Z,8.10
2019-01-06T12:04:38.345Z,8.20
2019-01-06T12:07:34.474Z,8.20
2019-01-06T12:10:21.263Z,8.20
2019-01-06T12:13:03.970Z,8.20
2019-01-06T12:15:50.834Z,8.20
2019-01-06T12:18:44.891Z,8.20
2019-01-06T12:21:31.507Z,8.20
2019-01-06T12:24:19.442Z,8.20
2019-01-06T12:27:19.547Z,8.30
2019-01-06T12:30:13.412Z,8.30
2019-01-06T12:33:00.245Z,8.40
2019-01-06T12:35:47.171Z,8.40
2019-01-06T12:38:34.198Z,8.40
2019-01-06T12:41:18.979Z,8.40
2019-01-06T12:44:05.797Z,8.40
2019-01-06T12:46:51.671Z,8.40
2019-01-06T12:49:52.150Z,8.30
2019-01-06T12:52:38.982Z,8.30
2019-01-06T12:55:31.895Z,8.30
2019-01-06T12:58:20.785Z,8.30
2019-01-06T13:00:59.417Z,8.30
2019-01-06T13:03:59.926Z,8.30
2019-01-06T13:06:46.881Z,8.30
2019-01-06T13:09:33.794Z,8.40
2019-01-06T13:12:31.290Z,8.30
2019-01-06T13:15:19.386Z,8.30
2019-01-06T13:18:08.348Z,8.20
2019-01-06T13:20:55.066Z,8.10
2019-01-06T13:23:46.012Z,8.10
2019-01-06T13:26:30.117Z,8.10
2019-01-06T13:29:16.803Z,8.10
2019-01-06T13:32:03.750Z,8.10
2019-01-06T13:34:50.682Z,8.20
2019-01-06T13:37:37.958Z,8.20
2019-01-06T13:40:29.594Z,8.20
2019-01-06T13:43:21.850Z,8.30
2019-01-06T13:46:11.591Z,8.30
2019-01-06T13:48:58.450Z,8.30
2019-01-06T13:51:45.440Z,8.20
2019-01-06T13:54:40.516Z,8.10
2019-01-06T13:57:34.040Z,8.10
2019-01-06T14:00:41.722Z,8.10
2019-01-06T14:03:22.987Z,8.10
2019-01-06T14:06:10.708Z,8.00
2019-01-06T14:08:57.820Z,8.00
2019-01-06T14:11:44.966Z,8.00
2019-01-06T14:14:32.056Z,8.00
2019-01-06T14:17:32.346Z,8.00
2019-01-06T14:20:23.311Z,8.00
2019-01-06T14:23:05.562Z,8.00
2019-01-06T14:26:02.513Z,7.90
2019-01-06T14:28:59.517Z,8.00
2019-01-06T14:31:53.302Z,8.00
2019-01-06T14:34:41.430Z,8.00
2019-01-06T14:37:28.390Z,8.00
2019-01-06T14:40:16.293Z,7.90
2019-01-06T14:43:22.911Z,7.90
2019-01-06T14:46:08.199Z,7.90
2019-01-06T14:48:55.234Z,7.90
2019-01-06T14:51:50.066Z,7.90
2019-01-06T14:54:37.998Z,7.90
2019-01-06T14:57:25.125Z,7.90
2019-01-06T15:00:12.450Z,7.90
2019-01-06T15:02:56.788Z,7.80
2019-01-06T15:05:44.165Z,7.70
2019-01-06T15:08:45.572Z,7.80
2019-01-06T15:11:26.997Z,7.80
2019-01-06T15:14:24.330Z,7.80
2019-01-06T15:17:15.535Z,7.80
2019-01-06T15:20:00.157Z,7.80
2019-01-06T15:22:41.170Z,7.80
2019-01-06T15:25:29.517Z,7.80
2019-01-06T15:28:35.763Z,7.70
2019-01-06T15:31:25.740Z,7.60
2019-01-06T15:34:13.637Z,7.60
2019-01-06T15:37:07.790Z,7.60
2019-01-06T15:39:55.242Z,7.60
2019-01-06T15:43:01.759Z,7.60
2019-01-06T15:45:55.965Z,7.60
2019-01-06T15:48:56.118Z,7.60
2019-01-06T15:51:42.886Z,7.60
2019-01-06T15:54:29.632Z,7.60
2019-01-06T15:57:16.803Z,7.60
2019-01-06T16:00:02.352Z,7.60
2019-01-06T16:02:40.715Z,7.60
2019-01-06T16:05:37.987Z,7.60
2019-01-06T16:08:29.010Z,7.60
2019-01-06T16:11:18.700Z,7.60
2019-01-06T16:14:12.897Z,7.50
2019-01-06T16:17:00.113Z,7.50
2019-01-06T16:19:59.704Z,7.50
2019-01-06T16:23:06.083Z,7.50
2019-01-06T16:26:08.679Z,7.50
2019-01-06T16:28:55.486Z,7.50
2019-01-06T16:31:42.857Z,7.50
2019-01-06T16:34:33.851Z,7.40
2019-01-06T16:37:40.287Z,7.40
2019-01-06T16:40:23.867Z,7.40
2019-01-06T16:43:20.721Z,7.40
2019-01-06T16:46:07.478Z,7.40
2019-01-06T16:48:51.597Z,7.40
2019-01-06T16:51:54.661Z,7.30
2019-01-06T16:54:41.986Z,7.40
2019-01-06T16:57:38.042Z,7.40
2019-01-06T17:00:24.972Z,7.40
2019-01-06T17:03:22.122Z,7.50
2019-01-06T17:06:08.716Z,7.50
2019-01-06T17:08:56.931Z,7.40
2019-01-06T17:11:57.202Z,7.40
2019-01-06T17:14:44.004Z,7.30
2019-01-06T17:17:40.914Z,7.30
2019-01-06T17:20:27.867Z,7.30
2019-01-06T17:23:34.669Z,7.20
2019-01-06T17:26:21.429Z,7.20
2019-01-06T17:29:25.250Z,7.20
2019-01-06T17:32:11.941Z,7.10
2019-01-06T17:35:18.412Z,7.10
2019-01-06T17:38:09.942Z,7.10
2019-01-06T17:40:56.918Z,7.10
2019-01-06T17:43:48.266Z,7.10
2019-01-06T17:46:35.091Z,7.10
2019-01-06T17:49:35.533Z,7.10
2019-01-06T17:52:22.531Z,7.10
2019-01-06T17:55:10.561Z,7.10
2019-01-06T17:57:58.643Z,7.10
2019-01-06T18:00:45.558Z,7.00
2019-01-06T18:03:39.758Z,7.00
2019-01-06T18:06:34.274Z,6.90
2019-01-06T18:09:21.156Z,6.90
2019-01-06T18:12:27.969Z,6.90
2019-01-06T18:15:19.951Z,6.90
2019-01-06T18:18:10.721Z,6.80
2019-01-06T18:21:06.175Z,6.80
2019-01-06T18:23:53.184Z,6.80
2019-01-06T18:26:40.308Z,6.80
2019-01-06T18:29:34.978Z,6.80
2019-01-06T18:32:21.855Z,6.80
2019-01-06T18:35:11.206Z,6.80
2019-01-06T18:38:08.483Z,6.80
2019-01-06T18:40:59.058Z,6.80
2019-01-06T18:43:41.441Z,6.80
2019-01-06T18:46:28.886Z,6.80
2019-01-06T18:49:22.245Z,6.80
2019-01-06T18:52:19.366Z,6.80
2019-01-06T18:55:06.234Z,6.90
2019-01-06T18:57:53.126Z,6.90
2019-01-06T19:00:58.147Z,6.90
2019-01-06T19:03:49.782Z,6.90
2019-01-06T19:06:31.093Z,6.80
2019-01-06T19:09:18.003Z,6.80
2019-01-06T19:12:05.058Z,6.70
2019-01-06T19:14:52.733Z,6.70
2019-01-06T19:17:51.078Z,6.70
2019-01-06T19:20:37.611Z,6.60
2019-01-06T19:23:24.446Z,6.60
2019-01-06T19:26:21.680Z,6.70
2019-01-06T19:29:14.977Z,6.60
2019-01-06T19:32:02.923Z,6.60
2019-01-06T19:34:53.170Z,6.60
2019-01-06T19:37:40.735Z,6.60
2019-01-06T19:40:43.990Z,6.70
2019-01-06T19:43:30.968Z,6.80
2019-01-06T19:46:18.147Z,6.70
2019-01-06T19:49:11.971Z,6.70
2019-01-06T19:51:59.826Z,6.70
2019-01-06T19:54:53.618Z,6.80
2019-01-06T19:57:59.328Z,6.70
2019-01-06T20:00:53.217Z,6.70
2019-01-06T20:03:36.147Z,6.80
2019-01-06T20:06:35.414Z,6.80
2019-01-06T20:09:28.034Z,6.80
2019-01-06T20:12:18.911Z,6.80
2019-01-06T20:15:05.774Z,6.90
2019-01-06T20:17:54.122Z,6.90
2019-01-06T20:20:48.367Z,6.90
2019-01-06T20:23:45.700Z,6.90
2019-01-06T20:26:32.438Z,6.90
2019-01-06T20:29:16.174Z,7.00
2019-01-06T20:32:04.200Z,7.00
2019-01-06T20:35:07.266Z,7.00
2019-01-06T20:38:10.555Z,6.90
2019-01-06T20:40:56.977Z,6.80
2019-01-06T20:43:50.931Z,6.90
2019-01-06T20:46:43.338Z,6.90
2019-01-06T20:49:37.282Z,7.00
2019-01-06T20:52:23.946Z,6.90
2019-01-06T20:55:18.034Z,6.90
2019-01-06T20:58:09.068Z,6.90
2019-01-06T21:01:03.277Z,6.90
2019-01-06T21:04:03.150Z,6.90
2019-01-06T21:06:44.065Z,6.90
2019-01-06T21:09:49.668Z,6.80
2019-01-06T21:12:53.119Z,6.80
2019-01-06T21:15:40.142Z,6.80
2019-01-06T21:18:26.918Z,6.80
2019-01-06T21:21:14.289Z,6.80
2019-01-06T21:23:56.633Z,6.80
2019-01-06T21:26:41.003Z,6.80
2019-01-06T21:29:28.110Z,6.90
2019-01-06T21:32:14.922Z,6.90
2019-01-06T21:35:05.946Z,6.90
2019-01-06T21:37:59.021Z,6.90
2019-01-06T21:40:45.919Z,6.80
2019-01-06T21:43:49.228Z,6.80
2019-01-06T21:46:53.027Z,6.80
2019-01-06T21:49:45.114Z,6.80
2019-01-06T21:52:32.642Z,6.90
2019-01-06T21:55:24.861Z,6.90
2019-01-06T21:58:25.938Z,6.90
2019-01-06T22:01:06.968Z,6.90
2019-01-06T22:03:58.072Z,6.90
2019-01-06T22:06:45.094Z,6.80
2019-01-06T22:09:48.697Z,6.90
2019-01-06T22:12:37.606Z,6.90
2019-01-06T22:15:21.354Z,6.90
2019-01-06T22:18:12.197Z,6.90
2019-01-06T22:20:54.722Z,6.90
2019-01-06T22:23:55.076Z,6.90
2019-01-06T22:26:42.092Z,6.90
2019-01-06T22:29:28.607Z,6.90
2019-01-06T22:32:20.539Z,6.90
2019-01-06T22:35:08.271Z,6.90
2019-01-06T22:37:55.309Z,6.80
2019-01-06T22:40:42.291Z,6.80
2019-01-06T22:43:37.077Z,6.80
2019-01-06T22:46:32.606Z,6.80
2019-01-06T22:49:19.805Z,6.80
2019-01-06T22:52:02.031Z,6.80
2019-01-06T22:54:49.383Z,6.80
2019-01-06T22:57:43.321Z,6.80
2019-01-06T23:00:42.170Z,6.80
2019-01-06T23:03:29.313Z,6.80
2019-01-06T23:06:17.406Z,6.80
2019-01-06T23:09:02.546Z,6.70
2019-01-06T23:11:53.700Z,6.70
2019-01-06T23:14:46.737Z,6.70
2019-01-06T23:17:33.731Z,6.70
2019-01-06T23:20:37.254Z,6.70
2019-01-06T23:23:34.210Z,6.70
2019-01-06T23:26:33.079Z,6.70
2019-01-06T23:29:23.337Z,6.70
2019-01-06T23:32:19.147Z,6.70
2019-01-06T23:35:10.231Z,6.70
2019-01-06T23:38:05.899Z,6.70
2019-01-06T23:40:58.604Z,6.70
2019-01-06T23:43:53.156Z,6.60
2019-01-06T23:46:42.331Z,6.60
2019-01-06T23:49:38.630Z,6.60
2019-01-06T23:52:30.337Z,6.60
2019-01-06T23:55:18.108Z,6.60
2019-01-06T23:58:05.551Z,6.60
